Terminal Aerodrome Forecast
Issued by NWS Nashville, TN

Home | Current Version | Previous Version | Text Only | Print | Product List | Glossary On
Versions: 1 2 3 4 5 6 7 8 9 10 11 12 13 14
000
FTUS44 KOHX 312300
TAFBNA
TAF
KBNA 312327Z 0100/0124 VRB02KT P6SM SCT070 BKN250
     FM011100 00000KT 5SM BR SCT250
     FM011300 VRB03KT P6SM SCT050=

USA.gov is the U.S. government's official web portal to all federal, state and local government web resources and services.